Date,TemperatureHighF,TemperatureAvgF,TemperatureLowF,DewpointHighF,DewpointAvgF,DewpointLowF,HumidityHigh,HumidityAvg,HumidityLow,PressureMaxIn,PressureMinIn,WindSpeedMaxMPH,WindSpeedAvgMPH,GustSpeedMaxMPH,PrecipitationSumIn
2013-1-1,80.5,64.6,51.5,62.1,57.3,50.4,98,80,51,30.24,30.05,12,1,12,0.00
2013-1-2,81.6,66.9,53.7,68.9,62.0,52.3,99,86,60,30.08,29.99,7,1,7,0.00
2013-1-3,73.3,63.7,56.6,67.4,62.0,55.0,99,94,81,30.20,30.05,6,1,6,0.06
2013-1-4,57.9,55.8,52.8,57.3,55.2,52.3,99,98,97,30.31,30.18,5,1,5,0.17
2013-1-5,74.7,61.7,50.7,62.6,56.0,48.4,98,83,63,30.33,30.21,7,1,7,0.00
2013-1-6,81.9,67.4,59.8,69.5,63.1,57.2,97,87,65,30.23,30.06,6,1,6,0.00
2013-1-7,68.8,61.2,53.9,60.1,56.8,49.8,97,86,66,30.25,30.14,10,2,10,0.09
2013-1-8,83.8,69.7,60.3,71.6,65.9,59.4,99,89,63,30.25,30.15,7,1,7,0.01
2013-1-9,84.3,72.9,67.5,73.6,69.5,66.9,99,90,68,30.32,30.21,10,2,10,0.01
2013-1-10,84.7,73.0,64.4,72.0,67.1,62.3,99,84,51,30.33,30.23,12,2,12,0.00
2013-1-11,84.0,70.6,60.7,71.3,65.4,59.8,99,85,58,30.28,30.16,8,1,8,0.00
2013-1-12,83.4,71.5,62.2,69.7,64.8,61.6,99,81,50,30.21,30.10,8,2,8,0.00
2013-1-13,85.9,71.8,61.5,68.8,64.7,60.8,99,80,50,30.19,30.08,8,1,8,0.00
2013-1-14,84.4,71.2,61.7,68.7,64.4,61.1,99,81,51,30.21,30.12,9,1,8,0.00
2013-1-15,84.8,74.1,62.9,70.6,65.0,61.8,99,75,49,30.17,30.06,255,1,255,0.00
2013-1-16,85.0,73.1,63.2,64.4,61.0,58.6,89,67,46,30.08,30.01,255,0,5,0.00
2013-1-17,75.9,61.0,50.3,69.4,57.2,43.7,99,88,75,30.14,30.00,10,2,10,0.13
2013-1-18,65.8,52.8,38.8,56.2,46.2,34.6,88,78,68,30.32,30.14,14,3,14,0.00
2013-1-19,75.0,61.9,52.3,61.5,56.0,48.9,93,82,61,30.31,30.16,12,2,12,0.00
2013-1-20,74.7,63.7,58.3,63.6,58.8,55.2,97,85,65,30.20,30.07,7,1,7,0.00
2013-1-21,78.1,66.6,59.7,61.9,57.6,53.5,89,74,56,30.12,30.01,5,0,5,0.00
2013-1-22,63.2,56.0,45.0,53.5,41.9,33.9,86,61,37,30.30,30.09,6,1,6,0.00
2013-1-23,70.1,54.3,39.8,43.0,37.2,32.4,91,58,27,30.39,30.29,7,1,7,0.00
2013-1-24,76.7,59.8,40.8,53.4,48.5,39.7,97,70,39,30.35,30.23,7,1,7,0.00
2013-1-25,78.6,60.4,47.5,60.0,50.8,46.0,99,75,40,30.33,30.18,7,1,7,0.00
2013-1-26,79.4,60.4,44.5,60.2,52.6,43.2,99,79,45,30.30,30.17,6,0,6,0.00
2013-1-27,80.5,63.9,49.3,64.5,57.0,48.8,99,81,47,30.34,30.24,7,1,7,0.00
2013-1-28,81.6,70.6,61.7,66.3,64.0,60.3,97,81,58,30.35,30.24,10,2,10,0.00
2013-1-29,86.0,71.0,62.2,70.6,65.4,61.6,99,85,50,30.27,30.10,10,2,10,0.00
2013-1-30,86.0,74.4,65.2,67.9,65.5,61.9,96,76,52,30.13,29.89,15,6,15,0.00
2013-1-31,70.5,56.3,43.8,66.3,42.7,26.0,96,64,27,30.26,29.90,12,1,12,0.08
2013-2-1,72.7,52.3,35.0,41.9,34.7,25.5,95,58,19,30.38,30.25,7,1,7,0.00
2013-2-2,75.3,55.3,37.7,47.6,39.7,34.1,92,60,30,30.33,30.16,6,1,6,0.00
2013-2-3,73.5,53.2,37.2,53.4,41.7,33.6,91,68,36,30.21,30.07,7,1,7,0.00
2013-2-4,73.6,54.5,38.3,50.1,40.0,35.1,98,65,27,30.17,30.06,7,1,7,0.00
2013-2-5,80.2,59.5,40.0,54.6,47.2,37.3,97,68,36,30.13,30.01,7,1,7,0.00
2013-2-6,79.9,68.0,54.5,64.3,58.9,50.8,92,74,52,30.13,30.05,5,0,5,0.00
2013-2-7,83.0,72.1,62.5,65.9,63.1,60.3,94,75,53,30.10,29.86,13,4,13,0.00
2013-2-8,83.2,68.4,54.3,65.7,59.9,52.9,96,77,43,30.10,29.90,7,2,7,0.00
2013-2-9,76.7,62.3,49.5,58.0,54.4,48.6,98,78,49,30.23,30.09,10,2,10,0.00
2013-2-10,80.6,68.9,57.9,60.9,57.8,54.3,90,70,47,30.29,30.17,14,4,14,0.00
2013-2-11,85.3,71.7,56.7,64.9,61.2,55.3,97,72,47,30.23,30.07,12,3,12,0.00
2013-2-12,87.4,76.3,61.2,69.6,65.9,60.3,99,73,48,30.11,29.93,9,3,9,0.00
2013-2-13,85.6,72.2,61.6,71.4,66.8,59.6,96,85,58,29.99,29.83,13,3,13,0.46
2013-2-14,66.5,61.3,55.7,61.8,58.7,54.6,97,92,75,30.07,29.93,7,1,7,0.32
2013-2-15,73.5,59.2,51.4,58.8,53.8,50.3,98,84,53,30.11,29.97,5,1,5,0.01
2013-2-16,71.0,55.0,46.1,51.9,44.2,27.1,96,70,41,30.17,29.93,12,2,12,0.00
2013-2-17,56.7,46.5,35.9,30.8,21.3,13.1,78,40,19,30.37,30.16,8,2,8,0.00
2013-2-18,71.4,51.1,31.1,47.6,36.4,22.7,92,61,33,30.40,30.24,14,2,14,0.00
2013-2-19,81.4,63.6,46.8,58.4,53.5,44.3,95,73,42,30.25,30.07,12,2,12,0.00
2013-2-20,77.8,64.8,56.4,60.9,56.6,52.3,97,76,55,30.16,30.03,6,1,6,0.00
2013-2-21,86.5,70.4,54.0,65.9,59.6,51.9,95,71,44,30.14,30.00,8,2,8,0.00
2013-2-22,90.2,75.4,62.6,70.2,65.7,61.6,99,75,43,30.10,29.99,10,2,10,0.00
2013-2-23,89.6,75.6,68.8,70.6,68.0,64.5,96,79,47,30.03,29.88,13,3,13,0.00
2013-2-24,75.4,70.5,65.6,71.8,68.6,64.1,98,94,87,29.98,29.88,6,1,6,0.25
2013-2-25,87.0,73.4,63.7,72.5,66.4,62.8,99,81,50,29.94,29.77,8,1,8,0.00
2013-2-26,76.8,70.0,63.5,72.9,66.8,61.3,97,90,71,29.89,29.74,12,3,12,0.47
2013-2-27,79.2,64.6,53.0,62.2,56.0,48.9,96,76,40,30.00,29.88,7,1,7,0.00
2013-2-28,76.2,60.1,45.9,56.9,49.4,44.6,99,71,35,30.02,29.90,9,2,9,0.00
2013-3-1,68.9,54.9,45.8,48.3,41.3,33.7,90,63,29,30.03,29.92,9,2,9,0.00
2013-3-2,61.8,50.7,40.8,39.6,34.9,29.2,85,56,30,30.06,29.98,12,2,12,0.00
2013-3-3,54.4,43.5,35.1,34.4,31.6,28.9,81,64,45,30.18,30.02,12,2,12,0.00
2013-3-4,69.2,47.9,30.4,38.5,30.5,23.3,97,59,20,30.26,30.14,7,1,7,0.00
2013-3-5,79.8,59.7,39.3,58.4,46.3,35.0,95,66,31,30.21,30.02,9,2,9,0.00
2013-3-6,69.4,59.0,44.9,61.5,41.4,29.6,96,57,23,30.17,29.94,12,3,12,0.00
2013-3-7,69.5,54.1,40.2,41.7,37.3,31.4,85,55,31,30.25,30.15,7,1,7,0.00
2013-3-8,77.7,56.2,37.1,50.1,40.7,33.0,98,65,21,30.25,30.13,6,1,6,0.00
2013-3-9,77.0,59.0,43.6,53.7,48.7,42.1,97,72,37,30.26,30.16,9,1,9,0.00
2013-3-10,81.6,66.6,53.4,58.4,55.2,51.6,96,70,39,30.20,30.09,12,3,12,0.00
2013-3-11,81.2,68.3,56.0,61.6,57.9,53.3,94,72,49,30.14,29.90,12,2,12,0.00
2013-3-12,74.6,65.5,55.3,67.3,61.7,53.6,97,88,75,30.06,29.87,15,3,15,0.16
2013-3-13,77.9,61.2,44.4,53.6,41.4,30.8,95,56,19,30.20,30.05,7,1,7,0.00
2013-3-14,70.9,55.4,43.4,44.0,35.4,28.1,87,52,23,30.30,30.18,7,1,7,0.00
2013-3-15,76.9,55.9,37.3,51.0,38.9,30.1,98,61,24,30.32,30.16,9,1,10,0.00
2013-3-16,85.2,61.7,42.0,53.6,43.8,40.0,98,60,22,30.21,30.05,8,1,8,0.00
2013-3-17,80.5,64.1,45.7,60.0,52.8,44.6,98,70,41,30.16,30.00,9,1,9,0.00
2013-3-18,81.3,70.8,61.6,66.7,63.3,58.9,92,78,58,30.09,29.91,9,2,9,0.01
2013-3-19,90.0,72.9,62.3,67.0,62.8,57.0,98,74,37,30.04,29.90,8,1,8,0.00
2013-3-20,77.9,67.6,55.5,67.6,61.6,54.7,97,82,65,30.00,29.80,8,1,8,0.06
2013-3-21,76.2,58.5,45.0,56.7,43.1,28.3,98,64,19,30.00,29.88,10,1,10,0.01
2013-3-22,83.4,61.0,43.5,63.4,49.7,40.7,96,72,33,30.05,29.91,9,1,9,0.09
2013-3-23,87.8,74.0,62.0,74.2,67.5,60.8,98,82,56,30.01,29.78,16,2,16,0.01
2013-3-24,82.7,73.2,66.1,73.9,69.4,63.6,96,88,72,29.86,29.63,16,4,16,0.62
2013-3-25,75.5,63.6,50.4,65.1,47.3,32.1,96,61,21,30.06,29.73,12,2,12,0.00
2013-3-26,62.5,52.3,42.6,42.8,31.5,21.9,75,47,22,30.27,30.05,12,2,12,0.00
2013-3-27,68.4,50.8,36.9,38.4,33.7,28.8,88,57,24,30.34,30.22,7,1,7,0.00
2013-3-28,76.3,55.8,36.1,47.2,36.7,29.7,98,58,20,30.33,30.20,7,0,7,0.00
2013-3-29,79.6,61.2,41.6,52.4,40.3,34.4,98,54,21,30.35,30.20,8,1,8,0.00
2013-3-30,83.0,63.1,45.2,55.3,48.3,42.7,96,64,32,30.28,30.12,9,1,9,0.00
2013-3-31,85.6,68.8,55.8,58.9,54.5,50.0,89,64,32,30.19,30.00,13,2,13,0.00
2013-4-1,87.2,73.3,60.1,67.0,62.9,55.9,93,72,44,30.04,29.94,10,2,10,0.00
2013-4-2,89.3,72.3,59.7,66.2,58.7,50.2,99,68,28,30.11,30.01,8,1,8,0.00
2013-4-3,86.2,72.6,60.9,68.0,63.8,55.7,96,76,48,30.11,29.96,10,2,10,0.42
2013-4-4,73.5,69.5,67.0,69.3,67.3,64.7,97,93,84,30.04,29.87,20,2,20,0.32
2013-4-5,80.2,68.4,57.4,68.9,62.8,55.4,97,84,47,30.02,29.81,12,2,12,0.02
2013-4-6,81.2,66.0,52.0,60.6,56.6,50.3,96,74,46,30.16,30.02,12,2,12,0.00
2013-4-7,86.2,70.2,57.2,64.9,59.4,56.1,98,72,37,30.18,30.08,8,2,9,0.00
2013-4-8,88.4,74.4,60.2,66.1,61.0,57.0,97,67,36,30.16,30.06,12,2,12,0.00
2013-4-9,88.1,74.0,62.6,69.2,63.1,56.3,98,72,44,30.18,30.09,12,2,12,0.00
2013-4-10,92.0,74.8,60.9,70.5,64.8,59.6,98,74,37,30.15,29.98,8,2,8,0.00
2013-4-11,93.1,78.7,72.1,72.8,70.9,68.9,94,79,49,30.02,29.82,18,4,18,0.07
2013-4-12,84.9,76.8,73.2,75.0,72.4,70.4,95,87,68,29.92,29.82,13,3,13,0.00
2013-4-13,89.5,76.7,67.4,72.4,66.9,57.6,98,74,49,30.01,29.89,9,1,9,0.00
2013-4-14,92.1,75.5,66.3,75.4,67.7,60.4,90,77,54,30.01,29.83,12,2,12,0.13
2013-4-15,93.7,78.0,64.9,71.4,65.8,61.8,92,68,45,30.10,29.91,7,1,7,0.00
2013-4-16,91.5,77.9,67.6,73.8,68.6,65.0,100,75,50,30.17,30.06,9,2,9,0.00
2013-4-17,87.9,78.6,66.5,70.9,66.7,56.8,98,68,47,30.17,30.05,255,2,12,0.00
2013-4-18,91.6,81.2,66.4,71.5,67.6,63.8,99,65,44,30.08,29.95,255,1,8,0.00
2013-4-19,93.8,82.2,73.2,75.3,71.7,67.4,95,72,47,30.02,29.91,255,3,13,0.11
2013-4-20,75.9,64.9,58.2,71.7,61.6,55.5,95,89,78,30.19,29.97,6,1,6,0.00
2013-4-21,79.5,68.3,59.1,72.5,65.1,55.9,98,90,73,30.18,30.04,10,1,10,0.23
2013-4-22,78.2,68.9,63.9,70.0,66.5,61.5,99,92,73,30.11,30.01,9,1,9,0.02
2013-4-23,84.3,71.3,58.1,67.8,62.1,57.0,98,76,44,30.14,30.03,9,2,9,0.00
2013-4-24,91.7,74.8,57.2,66.3,60.9,54.0,99,67,29,30.16,30.07,9,1,9,0.00
2013-4-25,90.2,76.6,60.5,68.5,63.6,58.2,98,67,38,30.22,30.12,8,1,8,0.00
2013-4-26,89.7,76.3,62.6,68.5,65.1,61.1,97,71,45,30.25,30.16,9,1,9,0.00
2013-4-27,88.4,75.6,64.7,71.3,65.6,63.1,98,74,45,30.25,30.11,12,2,12,0.00
2013-4-28,88.2,75.3,63.9,68.6,65.1,62.2,98,73,43,30.16,29.99,12,3,12,0.00
2013-4-29,88.5,76.3,64.1,69.9,65.8,62.3,96,72,48,30.05,29.91,8,1,8,0.03
2013-4-30,92.5,76.1,67.0,70.9,67.8,60.9,98,79,37,30.03,29.91,12,2,12,3.25
2013-5-1,78.3,70.8,67.0,73.1,69.5,66.4,99,96,80,30.04,29.95,9,1,9,0.23
2013-5-2,72.9,68.9,65.6,72.2,68.3,65.0,99,98,95,29.99,29.83,7,0,7,2.50
2013-5-3,84.1,72.5,65.5,72.4,68.3,64.9,99,88,63,29.85,29.72,9,1,9,0.18
2013-5-4,86.1,77.6,69.2,73.5,69.7,66.1,98,78,59,29.81,29.68,6,1,6,0.11
2013-5-5,83.0,72.9,63.5,57.8,51.6,44.8,81,49,31,29.95,29.86,8,2,8,0.00
2013-5-6,79.6,68.9,57.6,60.7,56.7,51.3,94,67,41,30.02,29.90,9,2,9,0.00
2013-5-7,82.1,68.4,56.0,62.0,58.0,52.8,95,72,44,30.07,29.97,10,2,10,0.00
2013-5-8,86.4,72.6,59.3,65.8,60.9,58.2,97,70,41,30.15,30.04,6,1,6,0.00
2013-5-9,90.1,74.3,57.9,68.5,62.6,56.8,98,70,39,30.17,30.07,5,1,5,0.00
2013-5-10,93.5,77.9,63.0,73.7,67.0,61.9,98,72,43,30.16,30.00,8,1,8,0.00
2013-5-11,92.7,76.3,66.4,76.8,69.4,64.3,97,81,51,30.07,29.98,8,1,8,0.20
2013-5-12,92.4,78.2,66.7,73.9,68.4,65.5,97,74,47,30.05,29.95,8,1,8,0.00
2013-5-13,87.6,73.2,60.6,66.4,59.3,48.8,97,66,34,30.16,30.01,5,1,5,0.00
2013-5-14,87.3,70.1,51.6,59.3,53.3,47.6,97,60,27,30.24,30.13,8,1,8,0.00
2013-5-15,89.9,74.3,57.9,65.9,58.6,52.6,98,62,33,30.23,30.09,8,1,8,0.00
2013-5-16,90.7,76.7,62.9,66.6,63.3,58.8,95,66,36,30.15,30.01,7,2,7,0.00
2013-5-17,92.7,78.3,62.8,68.9,65.0,61.2,96,67,38,30.12,30.03,10,2,10,0.00
2013-5-18,96.5,80.5,67.0,74.5,68.8,63.0,98,71,34,30.13,30.00,9,1,9,0.06
2013-5-19,94.8,77.3,68.8,76.6,72.1,65.9,99,86,44,30.10,29.98,29,1,29,1.92
2013-5-20,92.0,77.8,70.0,74.6,70.6,66.2,98,81,48,30.10,29.98,12,1,12,0.00
2013-5-21,88.4,76.4,69.0,75.2,71.0,67.8,98,84,58,30.05,29.95,8,1,8,0.01
2013-5-22,92.4,76.5,68.6,74.8,71.0,67.7,99,84,50,29.99,29.91,10,1,10,0.01
2013-5-23,94.5,79.5,68.4,76.3,71.8,67.8,99,80,50,30.01,29.91,7,1,7,0.01
2013-5-24,96.6,82.1,70.6,76.6,68.8,61.6,98,69,33,30.10,29.98,7,1,7,0.00
2013-5-25,89.5,78.4,68.2,71.4,65.5,59.6,97,67,43,30.21,30.09,12,1,12,0.00
2013-5-26,88.1,75.0,59.4,67.0,60.5,47.7,98,64,25,30.24,30.14,8,1,8,0.00
2013-5-27,89.0,76.5,63.9,69.3,64.5,61.6,96,69,42,30.20,30.10,9,2,9,0.00
2013-5-28,89.6,78.7,66.9,72.6,69.5,64.8,97,75,54,30.17,30.06,12,3,12,0.00
2013-5-29,88.1,78.2,71.1,75.4,72.2,69.0,95,83,60,30.15,30.07,12,3,12,0.12
2013-5-30,89.2,79.6,72.6,76.4,72.1,67.8,94,79,57,30.14,30.04,14,4,14,0.17
2013-5-31,88.6,79.6,72.0,76.2,71.7,69.3,94,78,62,30.13,30.03,13,4,13,0.03
2013-6-1,91.4,80.8,72.1,77.7,74.0,70.7,96,81,62,30.09,29.97,12,2,12,0.00
2013-6-2,96.8,81.7,73.9,77.7,74.7,72.1,98,82,51,30.03,29.86,6,1,6,2.38
2013-6-3,91.3,79.2,72.5,77.8,74.8,72.2,99,88,60,30.01,29.89,8,1,8,0.00
2013-6-4,89.7,77.4,72.4,78.8,73.6,69.9,95,88,66,30.05,29.94,13,1,13,0.11
2013-6-5,88.7,76.7,72.4,77.5,72.7,69.9,96,88,57,30.04,29.92,12,1,12,0.13
2013-6-6,81.2,75.5,72.3,76.9,73.3,71.3,98,93,78,29.92,29.64,20,5,20,2.35
2013-6-7,91.9,81.2,72.3,77.0,74.0,71.1,97,80,58,29.97,29.77,10,2,10,0.00
2013-6-8,94.2,77.5,71.1,77.6,73.0,69.0,98,88,54,30.11,29.96,13,1,13,1.13
2013-6-9,93.6,83.6,71.1,78.5,74.8,70.5,99,78,56,30.11,30.03,8,1,8,0.00
2013-6-10,97.7,82.1,73.4,77.9,74.4,71.9,98,79,46,30.11,30.01,9,1,9,0.00
2013-6-11,90.9,78.1,73.3,79.9,74.3,69.3,98,89,65,30.09,30.02,4,0,5,0.36
2013-6-12,97.0,82.6,71.2,78.9,74.6,70.7,99,80,49,30.09,29.99,8,1,8,0.64
2013-6-13,96.7,83.5,72.5,79.4,74.7,71.5,100,77,50,30.05,29.90,70,1,6,0.00
2013-6-14,94.0,83.9,75.4,77.7,74.7,70.5,94,76,49,29.95,29.84,6,1,6,0.00
2013-6-15,90.9,80.5,75.3,79.9,75.8,72.5,96,86,65,30.08,29.92,7,1,8,0.12
2013-6-16,94.2,83.3,76.7,80.3,75.9,72.5,91,79,57,30.10,30.01,255,1,10,0.62
2013-6-17,97.2,82.3,73.0,80.9,76.3,71.4,98,83,51,30.09,29.97,255,1,6,0.76
2013-6-18,95.8,82.6,73.0,80.4,75.3,71.8,98,80,55,30.07,29.96,255,1,6,0.00
2013-6-19,93.3,84.0,76.3,79.6,75.8,72.5,97,77,59,30.05,29.96,255,1,9,0.00
2013-6-20,96.3,82.3,71.3,79.6,74.4,68.0,97,79,53,30.11,30.00,255,1,10,0.69
2013-6-21,92.6,77.6,72.0,78.2,73.6,71.3,99,89,57,30.12,30.05,255,0,255,0.11
2013-6-22,93.8,79.7,73.1,78.0,74.5,71.6,100,86,53,30.13,30.06,255,1,7,0.09
2013-6-23,93.3,81.5,72.9,79.1,75.6,72.3,100,84,55,30.16,30.09,255,1,12,0.09
2013-6-24,94.1,84.1,74.8,78.8,75.1,72.9,97,75,54,30.20,30.08,255,1,9,0.00
2013-6-25,94.5,84.7,74.1,77.8,74.1,69.3,98,72,49,30.17,30.03,255,1,12,0.01
2013-6-26,95.5,83.0,74.2,78.7,74.0,71.1,98,76,50,30.09,30.00,255,2,12,0.00
2013-6-27,95.9,82.0,71.4,78.7,74.3,70.2,97,79,53,30.06,29.93,5,1,5,0.00
2013-6-28,94.2,81.2,74.8,78.7,75.0,71.2,95,83,55,29.98,29.83,10,2,10,0.09
2013-6-29,91.7,81.1,75.8,79.1,75.6,73.4,96,84,60,29.88,29.79,8,3,8,0.00
2013-6-30,92.6,77.6,74.7,79.0,74.6,71.6,96,91,61,29.89,29.82,7,2,10,0.10
2013-7-1,85.3,76.5,72.3,77.4,73.6,71.1,97,91,76,30.04,29.87,5,1,13,0.48
2013-7-2,87.9,77.4,72.2,80.5,74.4,71.1,98,91,77,30.10,29.99,3,1,7,0.10
2013-7-3,92.3,79.2,72.9,79.7,74.9,72.0,98,87,62,30.14,30.06,3,1,12,0.15
2013-7-4,91.9,79.2,71.3,78.2,74.5,70.7,98,87,60,30.17,30.08,12,2,12,1.18
2013-7-5,91.7,79.9,71.1,80.2,75.4,70.5,99,87,55,30.17,30.06,13,2,13,0.58
2013-7-6,94.1,82.4,74.5,77.8,74.9,72.1,97,80,54,30.14,30.04,12,2,12,0.00
2013-7-7,94.0,83.7,74.2,78.2,74.5,70.2,97,76,49,30.15,30.04,9,2,10,0.00
2013-7-8,94.5,83.4,73.3,79.3,75.3,72.1,98,78,54,30.17,30.08,8,1,8,0.00
2013-7-9,94.0,84.9,72.3,78.6,73.4,68.9,99,71,47,30.18,30.07,9,1,9,0.00
2013-7-10,94.7,82.1,72.6,77.4,73.5,71.4,98,77,48,30.11,29.97,8,1,9,0.00
2013-7-11,96.4,82.0,73.5,77.9,74.3,72.2,97,79,48,30.05,29.92,8,1,8,0.01
2013-7-12,90.6,79.2,73.4,78.6,74.6,72.0,98,86,65,29.97,29.89,5,0,5,0.88
2013-7-13,92.9,79.4,72.2,77.1,73.9,71.3,98,85,55,30.02,29.92,9,1,9,0.04
2013-7-14,92.6,78.8,72.3,78.4,74.4,71.4,97,87,59,30.10,29.98,12,2,13,0.11
2013-7-15,89.6,78.4,71.6,78.2,74.1,70.7,98,87,62,30.14,30.02,8,1,8,0.04
2013-7-16,89.0,77.8,73.8,79.0,74.3,71.1,98,90,61,30.18,30.11,16,1,16,0.66
2013-7-17,92.0,79.8,73.5,79.5,75.1,71.0,99,87,58,30.18,30.09,12,1,12,0.06
2013-7-18,89.4,79.2,72.7,78.4,73.8,71.2,98,85,59,30.14,30.05,12,1,12,0.00
2013-7-19,93.4,78.8,72.2,78.6,73.6,71.0,97,86,60,30.14,30.04,7,2,7,0.98
2013-7-20,93.7,78.9,72.7,80.1,74.7,71.4,98,88,60,30.12,30.02,10,1,10,0.04
2013-7-21,96.7,82.2,73.9,81.3,76.6,73.0,99,84,55,30.13,30.03,6,1,6,0.14
2013-7-22,94.0,81.2,75.0,81.5,76.2,73.4,98,86,60,30.13,30.07,7,1,7,0.02
2013-7-23,85.0,76.7,72.8,79.4,75.0,70.9,98,94,79,30.10,29.97,7,1,7,0.52
2013-7-24,89.1,80.4,75.0,80.7,76.8,72.9,98,89,72,30.00,29.88,6,1,6,0.16
2013-7-25,87.5,80.0,72.5,79.5,76.4,70.6,97,89,70,30.00,29.87,10,1,10,0.21
2013-7-26,95.7,82.6,73.7,80.8,76.1,73.1,99,83,52,30.02,29.95,6,0,6,0.00
2013-7-27,97.4,83.8,73.9,80.5,76.1,73.3,99,80,50,30.01,29.89,6,0,6,0.00
2013-7-28,92.7,80.2,73.3,80.5,75.1,71.8,98,86,58,30.08,29.95,8,1,8,0.02
2013-7-29,97.9,81.9,71.2,79.3,74.3,70.6,99,80,46,30.17,30.04,10,1,13,0.00
2013-7-30,97.7,84.6,73.7,80.3,75.4,71.6,98,76,44,30.18,30.07,8,1,8,0.00
2013-7-31,97.3,83.5,73.7,79.7,76.1,72.1,98,80,51,30.15,30.00,9,1,9,0.41
2013-8-1,95.6,80.7,74.6,78.6,74.8,72.2,98,84,49,30.08,29.95,5,1,5,0.01
2013-8-2,95.6,83.2,73.5,78.3,74.9,72.3,99,78,51,30.05,29.95,8,0,8,0.00
2013-8-3,94.0,81.4,75.7,80.7,76.1,73.7,97,85,59,30.10,30.01,8,1,8,0.29
2013-8-4,92.6,80.2,75.5,81.5,77.6,74.5,99,92,64,30.10,29.99,5,1,5,0.83
2013-8-5,95.7,84.0,76.2,82.7,78.3,73.7,98,84,59,30.03,29.91,7,1,7,0.00
2013-8-6,96.1,83.1,73.4,80.6,76.2,71.9,97,81,54,29.99,29.90,12,1,12,0.00
2013-8-7,95.7,82.4,76.4,80.7,77.7,74.3,99,87,56,29.99,29.92,12,1,12,0.47
2013-8-8,96.7,83.2,76.4,79.7,76.6,72.6,98,82,49,30.05,29.95,12,1,12,0.02
2013-8-9,92.9,81.9,75.6,80.1,76.4,73.2,98,85,58,30.08,29.99,8,1,8,0.29
2013-8-10,97.3,83.8,72.7,79.3,75.1,71.7,98,77,51,30.13,30.04,7,1,7,0.00
2013-8-11,97.3,85.5,74.4,79.7,75.6,71.1,98,75,44,30.16,30.06,7,1,7,0.00
2013-8-12,97.2,85.0,74.0,80.5,75.7,72.4,98,76,51,30.14,30.00,6,1,6,0.00
2013-8-13,100.6,85.7,75.0,79.2,76.0,71.6,97,75,40,30.06,29.93,7,1,7,0.00
2013-8-14,98.8,80.7,73.8,81.2,75.8,72.2,99,87,51,30.02,29.90,8,1,8,0.21
2013-8-15,97.8,82.9,73.6,79.8,75.3,72.0,99,80,45,30.04,29.92,8,1,8,0.02
2013-8-16,94.8,83.5,76.1,79.8,76.6,73.1,97,81,56,30.07,29.97,8,1,8,0.00
2013-8-17,93.4,81.4,74.6,81.1,76.4,72.3,98,86,62,30.10,29.97,10,1,10,0.04
2013-8-18,93.4,82.5,76.1,80.4,76.4,74.5,99,83,58,30.11,30.02,12,2,12,0.05
2013-8-19,94.6,83.7,75.1,80.9,76.7,74.2,99,81,54,30.10,29.97,8,1,8,0.00
2013-8-20,97.9,84.2,74.6,80.1,75.6,70.5,99,78,48,30.11,29.99,9,2,9,0.00
2013-8-21,95.6,80.7,72.5,79.7,76.0,71.0,97,87,55,30.12,30.06,10,2,10,0.89
2013-8-22,93.4,79.3,74.6,81.4,76.3,72.8,99,91,61,30.10,30.01,8,1,8,0.90
2013-8-23,93.9,78.1,72.5,81.3,75.9,71.3,99,93,60,30.05,29.96,9,0,9,1.56
2013-8-24,94.8,79.4,73.5,82.7,75.9,72.2,100,90,53,30.13,30.02,12,1,12,0.39
2013-8-25,90.2,79.2,73.3,79.3,75.5,72.6,99,89,64,30.18,30.09,7,1,7,0.08
2013-8-26,89.9,79.1,73.1,79.5,75.4,72.2,99,89,64,30.16,30.03,12,1,12,0.26
2013-8-27,92.7,81.0,72.1,77.3,73.1,69.2,99,79,50,30.09,29.99,10,1,10,0.00
2013-8-28,94.0,81.9,70.2,76.1,71.3,68.3,98,73,46,30.07,29.98,6,1,6,0.00
2013-8-29,96.3,82.6,71.0,76.3,73.2,70.3,99,76,47,30.06,29.92,4,0,4,0.00
2013-8-30,98.7,83.0,72.4,79.7,74.2,71.0,97,78,42,30.01,29.88,8,1,8,0.08
2013-8-31,95.8,82.6,74.4,80.4,76.3,73.6,98,83,52,29.98,29.88,12,1,12,0.15
2013-9-1,97.2,85.6,73.4,79.1,75.3,70.5,97,74,46,30.01,29.89,10,2,10,0.01
2013-9-2,95.7,82.0,72.3,78.5,74.8,71.4,98,81,50,30.02,29.92,10,1,10,0.00
2013-9-3,97.4,83.5,73.6,79.4,75.3,71.8,98,79,46,30.03,29.92,7,1,7,0.00
2013-9-4,97.7,81.4,72.8,80.0,75.5,70.0,98,84,53,30.10,29.99,9,1,9,0.22
2013-9-5,97.1,82.3,71.9,81.0,74.5,70.7,98,79,49,30.11,30.00,8,1,8,0.00
2013-9-6,96.8,78.6,71.4,80.3,74.1,70.5,98,87,53,30.07,29.97,12,1,12,0.30
2013-9-7,92.4,79.3,71.1,78.4,73.5,70.5,99,84,54,30.03,29.93,7,1,7,0.00
2013-9-8,93.1,80.5,71.0,77.9,73.3,70.1,99,81,52,29.99,29.89,10,1,10,0.00
2013-9-9,93.7,81.0,70.6,77.0,72.2,68.6,97,77,45,30.06,29.96,8,1,8,0.00
2013-9-10,92.3,80.9,72.5,75.6,72.9,67.8,98,79,46,30.11,30.02,12,2,12,0.00
2013-9-11,94.1,82.2,73.3,77.5,73.7,68.5,97,78,48,30.10,30.00,10,2,10,0.00
2013-9-12,94.8,82.4,72.8,88.2,76.9,70.9,100,85,48,30.05,29.90,9,1,9,0.00
2013-9-13,96.8,86.7,73.0,88.2,78.8,71.8,100,80,47,29.93,29.79,255,1,8,0.00
2013-9-14,98.0,86.3,74.0,77.4,74.3,71.0,99,69,44,29.99,29.84,255,0,5,0.00
2013-9-15,96.1,84.9,75.9,80.2,75.3,65.5,98,74,50,30.08,29.98,255,1,12,0.00
2013-9-16,95.6,82.2,73.9,78.0,74.6,70.5,99,79,49,30.10,29.98,255,1,13,0.00
2013-9-17,93.8,82.6,74.9,78.3,74.2,71.1,98,77,53,30.08,29.96,255,2,10,0.00
2013-9-18,90.7,81.9,74.2,78.0,74.0,72.3,95,77,56,30.06,29.98,255,1,10,0.01
2013-9-19,93.7,82.4,73.2,77.1,73.1,70.3,98,74,50,30.07,29.98,255,1,10,0.00
2013-9-20,92.4,82.7,72.3,72.9,70.7,65.4,92,68,48,30.05,29.91,255,1,7,0.00
2013-9-21,95.9,84.8,71.0,74.7,71.2,60.6,99,65,44,29.96,29.76,255,1,6,0.00
2013-9-22,94.2,81.6,75.6,78.2,74.3,64.7,97,80,57,29.87,29.76,255,1,8,0.37
2013-9-23,85.0,76.6,72.2,79.0,75.2,71.3,99,96,80,29.98,29.85,255,1,7,2.03
2013-9-24,86.0,76.6,72.6,79.3,74.8,71.6,99,94,76,29.98,29.84,8,2,8,0.33
2013-9-25,90.1,76.4,72.8,90.1,71.3,-6.8,100,90,3,29.86,29.79,10,1,10,0.17
2013-9-26,93.6,81.4,71.8,80.8,74.4,-4.6,100,82,3,29.89,29.79,8,1,8,0.13
2013-9-27,81.8,76.2,69.4,77.0,72.5,68.2,100,89,76,29.98,29.88,8,1,8,0.03
2013-9-28,85.6,78.8,71.2,75.7,73.2,69.1,99,83,69,30.02,29.94,255,1,10,0.00
2013-9-29,90.6,79.7,68.7,74.6,71.4,67.4,98,77,53,30.01,29.91,255,1,10,0.00
2013-9-30,92.9,80.0,69.9,76.0,70.9,63.1,98,75,47,30.03,29.92,255,1,7,0.00
2013-10-1,91.3,80.7,71.9,75.9,71.9,65.4,95,75,56,30.09,29.99,255,1,8,0.00
2013-10-2,90.7,81.1,69.8,73.9,71.0,63.0,93,72,54,30.08,30.00,255,1,7,0.00
2013-10-3,93.9,82.6,69.5,75.6,71.8,68.0,95,71,49,30.09,29.99,255,1,7,0.00
2013-10-4,93.4,84.1,72.0,76.2,72.6,69.0,99,69,47,30.10,30.00,255,1,7,0.00
2013-10-5,92.3,82.8,70.6,76.3,72.8,70.3,99,73,51,30.08,29.96,255,1,8,0.00
2013-10-6,94.8,83.3,71.7,77.8,72.9,69.8,99,72,48,30.00,29.85,255,1,7,0.00
2013-10-7,87.5,77.4,73.5,78.9,74.4,71.5,98,91,74,29.87,29.74,255,2,12,0.96
2013-10-8,90.5,78.5,74.3,78.7,74.5,71.4,99,88,65,29.98,29.78,255,1,8,0.00
2013-10-9,80.8,73.3,67.8,71.9,69.0,64.7,93,87,70,30.06,29.95,255,1,5,0.00
2013-10-10,89.3,75.2,65.0,71.6,66.7,61.9,98,76,49,30.08,29.98,255,0,5,0.00
2013-10-11,90.6,78.0,64.4,71.6,65.9,61.1,99,68,45,30.06,29.95,255,0,7,0.00
2013-10-12,89.5,77.2,63.1,71.0,63.4,61.3,99,64,42,30.06,29.97,255,0,6,0.00
2013-10-13,87.6,77.2,63.8,70.1,64.5,54.2,98,66,42,30.10,30.00,255,0,6,0.00
2013-10-14,87.9,78.1,67.4,70.8,67.8,59.2,99,72,50,30.07,29.94,255,1,6,0.00
2013-10-15,79.0,73.9,69.7,72.5,69.3,66.9,97,86,79,30.02,29.91,255,0,4,0.00
2013-10-16,91.4,79.2,70.6,72.6,69.8,66.5,98,75,51,30.00,29.90,255,0,7,0.00
2013-10-17,97.7,81.9,68.7,75.6,70.6,57.7,99,70,43,30.00,29.90,255,0,6,0.00
2013-10-18,107.9,79.6,68.8,87.7,70.8,-3.0,99,78,3,30.00,29.90,6,1,6,0.00
2013-10-19,94.0,79.6,69.4,75.8,72.6,68.7,99,81,51,29.97,29.87,6,1,6,0.00
2013-10-20,89.2,78.3,72.6,77.2,73.5,69.8,98,86,65,29.99,29.88,6,1,6,0.00
2013-10-21,97.1,79.9,71.1,79.1,73.9,69.7,97,83,53,30.01,29.91,5,1,5,0.00
2013-10-22,108.2,82.5,73.2,90.2,73.9,71.1,98,78,55,29.97,29.82,8,1,8,0.00
2013-10-23,87.6,80.0,69.9,73.4,65.2,54.4,97,62,42,30.03,29.82,255,1,6,0.00
2013-10-24,71.9,66.8,58.8,58.5,55.8,45.6,90,69,59,30.19,30.03,255,0,6,0.00
2013-10-25,82.9,69.6,56.1,61.3,56.0,51.0,99,65,39,30.27,30.16,255,0,4,0.00
2013-10-26,82.4,74.5,56.0,58.6,55.3,38.4,95,52,36,30.24,30.11,255,0,6,0.00
2013-10-27,82.1,72.1,55.9,61.0,55.1,52.1,99,57,37,30.16,30.07,255,1,6,0.00
2013-10-28,85.4,75.8,57.6,64.6,59.3,46.7,99,58,40,30.21,30.12,255,0,5,0.00
2013-10-29,85.8,81.6,63.0,69.1,64.5,42.4,99,57,47,30.25,30.15,255,1,9,0.00
2013-10-30,86.3,83.5,72.6,71.2,67.3,54.7,88,58,55,30.25,30.12,255,0,7,0.00
2013-10-31,101.0,84.8,66.7,76.4,67.1,41.0,99,57,20,30.16,29.98,255,1,9,0.00
2013-11-1,92.8,87.4,70.0,72.9,67.8,48.7,97,54,39,30.03,29.87,255,2,10,0.00
2013-11-2,89.5,75.8,63.3,73.1,66.2,61.9,98,76,50,30.00,29.81,255,0,5,0.40
2013-11-3,114.0,71.2,55.1,63.9,55.8,-12.0,95,63,3,30.15,29.98,255,0,10,0.00
2013-11-4,80.7,72.7,63.6,67.3,55.6,40.6,100,58,43,30.19,30.12,255,1,10,0.00
2013-11-23,87.1,75.6,64.6,66.9,63.4,53.5,93,68,42,30.14,30.01,6,1,6,0.00
2013-11-24,69.2,63.2,58.2,64.6,56.4,49.7,96,79,67,30.27,30.05,12,2,12,0.00
2013-11-25,75.5,66.9,59.3,60.5,55.7,51.3,80,68,48,30.27,30.10,12,3,12,0.00
2013-11-26,82.7,73.2,65.7,71.7,67.8,60.6,95,84,66,30.10,29.75,16,4,16,0.38
2013-11-27,72.6,61.8,45.4,70.4,55.9,40.2,96,82,59,30.18,29.71,14,3,14,0.22
2013-11-28,65.6,56.8,43.3,49.6,46.6,36.6,87,70,52,30.38,30.26,5,1,5,0.00
2013-11-29,72.0,58.5,48.3,58.4,52.1,46.3,96,81,60,30.40,30.30,12,2,12,0.00
2013-11-30,77.0,64.1,54.6,62.8,58.2,51.1,96,83,53,30.34,30.20,8,2,8,0.00
2013-12-1,75.8,64.6,59.7,64.6,60.8,58.6,99,89,66,30.23,29.99,4,0,4,0.00
2013-12-2,75.5,64.1,57.3,62.6,56.8,50.1,99,80,46,30.00,29.84,5,1,5,0.00
2013-12-3,81.1,65.7,52.7,61.0,57.2,51.9,98,77,48,30.01,29.89,7,1,7,0.00
2013-12-4,86.3,69.6,60.3,69.0,62.7,59.4,98,81,46,30.11,29.99,5,1,5,0.00
2013-12-5,84.8,71.5,60.1,67.6,63.8,59.5,99,79,50,30.19,30.09,8,1,8,0.00
2013-12-6,87.3,74.4,64.3,71.3,66.6,63.8,99,79,49,30.19,30.09,12,2,12,0.00
2013-12-7,87.5,75.8,64.1,69.0,64.3,61.2,99,70,43,30.25,30.15,5,1,5,0.00
2013-12-8,86.1,72.6,61.5,71.6,65.4,61.1,100,80,45,30.25,30.11,8,1,8,0.00
2013-12-9,85.3,73.2,63.8,71.1,65.9,62.3,99,80,53,30.20,30.09,10,2,10,0.00
2013-12-10,85.8,73.7,63.8,70.1,64.7,61.6,96,76,48,30.21,30.07,8,2,8,0.00
2013-12-11,84.1,70.2,56.6,66.3,61.8,52.8,92,76,53,30.28,30.16,7,1,7,0.00
2013-12-12,70.8,60.1,47.7,60.6,46.2,27.8,95,65,24,30.34,30.22,7,1,7,0.00
2013-12-13,74.7,59.5,45.3,56.8,51.1,41.1,98,76,46,30.30,30.15,12,1,12,0.00
2013-12-14,83.6,71.1,59.9,69.4,64.6,55.7,92,81,59,30.15,29.94,15,3,15,0.01
2013-12-15,72.9,65.9,53.2,70.1,61.3,50.3,96,85,69,30.15,29.87,12,2,12,0.28
2013-12-16,65.5,52.6,43.2,52.1,44.6,37.7,95,76,47,30.26,30.14,7,0,7,0.00
2013-12-17,73.0,53.9,40.1,51.7,45.8,39.3,99,77,44,30.28,30.17,5,0,5,0.00
2013-12-18,71.7,54.0,38.8,46.5,43.2,37.2,98,71,38,30.31,30.22,4,0,4,0.00
2013-12-19,77.3,59.1,44.9,57.6,49.8,41.0,92,74,37,30.31,30.19,7,1,7,0.00
2013-12-20,84.7,67.7,53.8,62.2,58.2,52.9,98,75,44,30.23,30.12,8,1,8,0.00
2013-12-21,86.6,73.3,63.3,69.9,66.3,60.6,98,81,50,30.16,30.03,13,3,13,0.00
2013-12-22,86.5,75.2,66.7,71.9,67.9,65.8,99,79,56,30.16,30.07,16,3,16,0.00
2013-12-23,87.2,74.9,67.5,72.6,68.6,65.5,99,83,50,30.18,30.07,14,2,14,0.00
2013-12-24,71.8,61.6,45.9,70.6,50.4,28.5,97,71,27,30.29,30.10,8,1,8,0.10
2013-12-25,76.1,58.2,42.9,56.1,49.2,38.7,97,74,42,30.28,30.17,10,1,10,0.00
2013-12-26,77.4,62.7,55.7,62.0,57.5,54.9,98,85,55,30.25,30.11,6,1,6,0.00
2013-12-27,67.6,63.3,56.3,63.6,60.1,54.1,95,90,83,30.28,30.18,8,1,8,0.00
2013-12-28,77.5,69.7,63.2,70.1,66.4,61.1,98,90,76,30.25,30.02,9,2,9,0.01
2013-12-29,77.6,72.4,66.2,72.6,69.5,65.2,97,91,80,30.03,29.89,12,3,12,0.15
2013-12-30,72.0,61.3,55.6,57.8,54.0,49.4,97,78,52,30.22,30.09,4,0,4,0.00
2013-12-31,70.6,60.9,55.2,54.9,50.9,47.5,93,71,46,30.32,30.19,6,1,6,0.00
2014-1-1,61.8,59.4,56.1,61.2,57.7,52.8,99,94,84,30.28,30.08,7,1,7,0.06
2014-1-2,79.8,66.5,57.3,71.9,65.0,53.6,100,95,72,30.08,29.83,12,2,12,0.49